Time;durP1;ratioP1;P1;durP2;ratioP2;P2;SDS_P1;SDS_P2;PMS_P1;PMS_P2;Temp;Humidity;BMP_temperature;BMP_pressure;BME280_temperature;BME280_humidity;BME280_pressure;Samples;Min_cycle;Max_cycle;Signal;HPM_P1;HPM_P2
2022/03/08 00:01:09;;;;;;;7.70;4.03;;;;;;;;;;4991814;28;20022;-36
2022/03/08 00:03:34;;;;;;;6.45;3.60;;;;;;;;;;4991795;28;20030;-37
2022/03/08 00:06:07;;;;;;;8.18;2.67;;;;;;;;;;4992141;28;20031;-37
2022/03/08 00:08:32;;;;;;;7.53;2.97;;;;;;;;;;4991896;28;20026;-37
2022/03/08 00:11:04;;;;;;;3.63;2.43;;;;;;;;;;4991841;28;20113;-36
2022/03/08 00:13:30;;;;;;;4.75;3.15;;;;;;;;;;4992006;28;20678;-37
2022/03/08 00:16:02;;;;;;;5.15;2.47;;;;;;;;;;4991863;28;20038;-37
2022/03/08 00:18:28;;;;;;;5.65;2.83;;;;;;;;;;4991613;28;20035;-36
2022/03/08 00:20:59;;;;;;;7.03;3.58;;;;;;;;;;4991693;28;20071;-36
2022/03/08 00:23:25;;;;;;;5.75;2.33;;;;;;;;;;4991683;28;20061;-36
2022/03/08 00:26:00;;;;;;;5.13;2.70;;;;;;;;;;4991806;28;20026;-36
2022/03/08 00:28:25;;;;;;;5.38;2.65;;;;;;;;;;4992455;28;20037;-37
2022/03/08 00:30:57;;;;;;;3.90;2.72;;;;;;;;;;5010660;28;20058;-36
2022/03/08 00:33:23;;;;;;;4.05;2.63;;;;;;;;;;5010520;28;20116;-37
2022/03/08 00:35:55;;;;;;;3.60;2.80;;;;;;;;;;4995569;28;20038;-37
2022/03/08 00:38:21;;;;;;;10.38;2.33;;;;;;;;;;4994364;28;20038;-37
2022/03/08 00:40:52;;;;;;;3.63;2.65;;;;;;;;;;5010492;28;20030;-37
2022/03/08 00:43:18;;;;;;;8.70;2.72;;;;;;;;;;4994149;28;20358;-36
2022/03/08 00:45:56;;;;;;;4.55;3.03;;;;;;;;;;4995321;28;20048;-36
2022/03/08 00:48:28;;;;;;;3.45;1.58;;;;;;;;;;5010344;28;20038;-37
2022/03/08 00:50:54;;;;;;;4.25;2.53;;;;;;;;;;4995457;28;20416;-37
2022/03/08 00:53:25;;;;;;;4.82;2.53;;;;;;;;;;5010140;28;20507;-36
2022/03/08 00:55:51;;;;;;;3.50;2.33;;;;;;;;;;5010230;28;20026;-36
2022/03/08 00:58:22;;;;;;;4.15;2.38;;;;;;;;;;4995116;28;20031;-37
2022/03/08 01:00:48;;;;;;;4.47;3.13;;;;;;;;;;4993737;28;20568;-37
2022/03/08 01:03:19;;;;;;;4.40;2.67;;;;;;;;;;4994947;28;20117;-39
2022/03/08 01:05:45;;;;;;;2.92;1.88;;;;;;;;;;5010027;28;20126;-36
2022/03/08 01:08:18;;;;;;;;;;;;;;;;;;4995594;28;20198;-37
2022/03/08 01:10:43;;;;;;;2.58;1.80;;;;;;;;;;4994838;28;20004;-36
2022/03/08 01:13:15;;;;;;;5.93;2.05;;;;;;;;;;4994732;28;20512;-36
2022/03/08 01:15:41;;;;;;;3.00;1.70;;;;;;;;;;5009838;28;20062;-36
2022/03/08 01:18:12;;;;;;;3.70;1.35;;;;;;;;;;5009773;28;20041;-37
2022/03/08 01:20:38;;;;;;;2.83;2.15;;;;;;;;;;4994590;28;20014;-36
2022/03/08 01:23:09;;;;;;;4.68;2.25;;;;;;;;;;4994558;28;20041;-36
2022/03/08 01:25:37;;;;;;;5.60;2.80;;;;;;;;;;4993211;28;20026;-36
2022/03/08 01:28:08;;;;;;;5.25;2.83;;;;;;;;;;5009529;28;20034;-36
2022/03/08 01:30:34;;;;;;;7.68;3.63;;;;;;;;;;4994713;28;20030;-36
2022/03/08 01:33:06;;;;;;;4.90;2.47;;;;;;;;;;4994464;28;20463;-36
2022/03/08 01:35:32;;;;;;;5.28;2.92;;;;;;;;;;4994569;28;20015;-37
2022/03/08 01:38:04;;;;;;;5.75;2.83;;;;;;;;;;4994652;28;20058;-36
2022/03/08 01:40:30;;;;;;;4.95;2.20;;;;;;;;;;4993435;28;20018;-36
2022/03/08 01:43:02;;;;;;;3.90;1.95;;;;;;;;;;5009544;28;20092;-36
2022/03/08 01:45:27;;;;;;;3.38;2.28;;;;;;;;;;4992905;28;20042;-37
2022/03/08 01:48:00;;;;;;;2.93;2.00;;;;;;;;;;5009216;28;20039;-36
2022/03/08 01:50:25;;;;;;;2.47;1.85;;;;;;;;;;4994340;28;20041;-36
2022/03/08 01:52:57;;;;;;;4.18;2.42;;;;;;;;;;4994265;28;20029;-37
2022/03/08 01:55:23;;;;;;;2.40;2.00;;;;;;;;;;4994016;28;20022;-37
2022/03/08 01:57:54;;;;;;;3.20;1.65;;;;;;;;;;4994147;28;20204;-36
2022/03/08 02:00:25;;;;;;;3.03;1.80;;;;;;;;;;5008973;28;20014;-37
2022/03/08 02:02:59;;;;;;;4.55;2.22;;;;;;;;;;4994144;28;20034;-36
2022/03/08 02:05:26;;;;;;;2.17;1.90;;;;;;;;;;4993708;28;20572;-36
2022/03/08 02:07:58;;;;;;;4.72;1.92;;;;;;;;;;4993798;28;20477;-37
2022/03/08 02:10:24;;;;;;;3.25;1.85;;;;;;;;;;4993685;28;20025;-36
2022/03/08 02:12:56;;;;;;;2.00;1.65;;;;;;;;;;4993955;28;20381;-36
2022/03/08 02:15:26;;;;;;;2.67;1.60;;;;;;;;;;4993951;28;20022;-36
2022/03/08 02:17:58;;;;;;;3.53;2.10;;;;;;;;;;4993481;28;20042;-36
2022/03/08 02:20:24;;;;;;;2.95;2.15;;;;;;;;;;4992192;28;20105;-36
2022/03/08 02:22:56;;;;;;;3.90;1.85;;;;;;;;;;4993752;28;20129;-36
2022/03/08 02:25:22;;;;;;;3.63;2.92;;;;;;;;;;4992248;28;20105;-36
2022/03/08 02:27:54;;;;;;;2.60;2.00;;;;;;;;;;4993453;28;20201;-36
2022/03/08 02:30:21;;;;;;;4.75;2.38;;;;;;;;;;4993380;28;20023;-36
2022/03/08 02:32:53;;;;;;;4.47;2.63;;;;;;;;;;4993256;28;20045;-36
2022/03/08 02:35:23;;;;;;;3.05;2.17;;;;;;;;;;4993635;28;20026;-37
2022/03/08 02:37:56;;;;;;;3.22;2.50;;;;;;;;;;4993103;28;20077;-37
2022/03/08 02:40:23;;;;;;;6.85;1.63;;;;;;;;;;4993167;28;20519;-37
2022/03/08 02:42:54;;;;;;;3.33;2.20;;;;;;;;;;4993352;28;20054;-36
2022/03/08 02:45:20;;;;;;;3.42;1.98;;;;;;;;;;4991979;28;20089;-37
2022/03/08 02:47:52;;;;;;;3.35;1.92;;;;;;;;;;4993193;28;20037;-36
2022/03/08 02:50:18;;;;;;;5.07;2.72;;;;;;;;;;4991788;28;20381;-36
2022/03/08 02:52:51;;;;;;;6.50;1.93;;;;;;;;;;4992868;28;20504;-36
2022/03/08 02:55:17;;;;;;;4.53;2.40;;;;;;;;;;4993179;28;20334;-36
2022/03/08 02:57:50;;;;;;;3.13;1.88;;;;;;;;;;4992858;28;20042;-36
2022/03/08 03:00:16;;;;;;;5.43;2.97;;;;;;;;;;4992768;28;20030;-36
2022/03/08 03:02:49;;;;;;;4.90;1.75;;;;;;;;;;4993033;28;20562;-36
2022/03/08 03:05:14;;;;;;;4.90;2.60;;;;;;;;;;4992791;28;20109;-36
2022/03/08 03:07:46;;;;;;;4.53;1.80;;;;;;;;;;4992636;28;20042;-36
2022/03/08 03:10:14;;;;;;;2.70;1.55;;;;;;;;;;4992705;28;20014;-36
2022/03/08 03:12:47;;;;;;;2.88;1.40;;;;;;;;;;4992625;28;20196;-36
2022/03/08 03:15:13;;;;;;;3.10;2.28;;;;;;;;;;4992545;28;20019;-36
2022/03/08 03:17:45;;;;;;;;;;;;;;;;;;4992885;28;20038;-36
2022/03/08 03:20:12;;;;;;;3.50;1.80;;;;;;;;;;4992532;28;19928;-36
2022/03/08 03:22:45;;;;;;;3.67;2.03;;;;;;;;;;4992537;28;20362;-36
2022/03/08 03:25:10;;;;;;;5.40;3.05;;;;;;;;;;4992414;28;20025;-36
2022/03/08 03:27:43;;;;;;;3.30;2.25;;;;;;;;;;4992528;28;20030;-36
2022/03/08 03:30:12;;;;;;;4.40;2.53;;;;;;;;;;4992596;28;20026;-36
2022/03/08 03:32:45;;;;;;;5.97;2.30;;;;;;;;;;4992119;28;20058;-36
2022/03/08 03:35:11;;;;;;;3.55;2.53;;;;;;;;;;4992286;28;20073;-36
2022/03/08 03:37:42;;;;;;;5.07;2.80;;;;;;;;;;4992230;28;20042;-36
2022/03/08 03:40:08;;;;;;;5.13;3.08;;;;;;;;;;4992179;28;20084;-36
2022/03/08 03:42:40;;;;;;;3.40;2.38;;;;;;;;;;4991998;28;20525;-36
2022/03/08 03:45:07;;;;;;;5.53;2.40;;;;;;;;;;4990795;28;20121;-37
2022/03/08 03:47:38;;;;;;;5.07;2.35;;;;;;;;;;4992067;28;20034;-36
2022/03/08 03:50:08;;;;;;;2.35;1.88;;;;;;;;;;4990847;28;20362;-36
2022/03/08 03:52:40;;;;;;;5.65;2.47;;;;;;;;;;4991896;28;20110;-36
2022/03/08 03:55:05;;;;;;;4.43;2.58;;;;;;;;;;4992221;28;20097;-36
2022/03/08 03:57:37;;;;;;;4.38;2.13;;;;;;;;;;4991841;28;20046;-36
2022/03/08 04:00:05;;;;;;;7.45;2.25;;;;;;;;;;4991974;28;20389;-37
2022/03/08 04:02:38;;;;;;;4.55;3.10;;;;;;;;;;4992486;28;20030;-36
2022/03/08 04:05:03;;;;;;;4.38;2.53;;;;;;;;;;4998163;28;20366;-36
2022/03/08 04:07:35;;;;;;;2.97;2.10;;;;;;;;;;4998405;28;20068;-36
2022/03/08 04:10:01;;;;;;;5.30;2.85;;;;;;;;;;4998418;28;20537;-36
2022/03/08 04:12:33;;;;;;;3.10;2.42;;;;;;;;;;4998235;28;20034;-36
2022/03/08 04:14:59;;;;;;;6.50;2.55;;;;;;;;;;4998628;28;20022;-37
2022/03/08 04:17:30;;;;;;;3.05;1.95;;;;;;;;;;5013571;28;20046;-36
2022/03/08 04:19:56;;;;;;;4.25;2.50;;;;;;;;;;4998529;28;20110;-36
2022/03/08 04:22:27;;;;;;;4.53;2.63;;;;;;;;;;4998374;28;20026;-36
2022/03/08 04:24:53;;;;;;;4.35;2.38;;;;;;;;;;4998373;28;20477;-37
2022/03/08 04:27:25;;;;;;;2.92;2.33;;;;;;;;;;4998146;28;20042;-36
2022/03/08 04:29:51;;;;;;;5.35;2.88;;;;;;;;;;4998550;28;20462;-36
2022/03/08 04:32:22;;;;;;;5.32;3.45;;;;;;;;;;4998245;28;20041;-36
2022/03/08 04:34:48;;;;;;;9.32;3.10;;;;;;;;;;4998297;28;20026;-36
2022/03/08 04:37:19;;;;;;;6.45;2.92;;;;;;;;;;4998016;28;20370;-36
2022/03/08 04:39:45;;;;;;;4.70;3.08;;;;;;;;;;5013175;28;20045;-36
2022/03/08 04:42:16;;;;;;;4.05;2.85;;;;;;;;;;4998348;28;20039;-36
2022/03/08 04:44:42;;;;;;;5.63;2.47;;;;;;;;;;4995478;28;20064;-36
2022/03/08 04:47:20;;;;;;;5.30;3.28;;;;;;;;;;4997179;28;20077;-36
2022/03/08 04:49:52;;;;;;;4.35;2.35;;;;;;;;;;4998057;28;20034;-36
2022/03/08 04:52:18;;;;;;;8.00;3.67;;;;;;;;;;4998325;28;20027;-36
2022/03/08 04:54:49;;;;;;;4.30;2.58;;;;;;;;;;4997915;28;20041;-36
2022/03/08 04:57:15;;;;;;;7.60;3.72;;;;;;;;;;4996532;28;20045;-36
2022/03/08 04:59:47;;;;;;;7.57;4.50;;;;;;;;;;4998160;28;20056;-36
2022/03/08 05:02:13;;;;;;;5.63;2.92;;;;;;;;;;4998075;28;20469;-36
2022/03/08 05:04:44;;;;;;;5.03;3.38;;;;;;;;;;4997847;28;20481;-36
2022/03/08 05:07:10;;;;;;;8.60;4.15;;;;;;;;;;4997886;28;20076;-36
2022/03/08 05:09:41;;;;;;;4.95;2.85;;;;;;;;;;4997790;28;20033;-36
2022/03/08 05:12:08;;;;;;;10.52;5.25;;;;;;;;;;4997880;28;20023;-36
2022/03/08 05:14:40;;;;;;;8.65;3.95;;;;;;;;;;4996346;28;20104;-37
2022/03/08 05:17:05;;;;;;;4.18;3.03;;;;;;;;;;4994375;28;20034;-36
2022/03/08 05:19:37;;;;;;;8.70;3.45;;;;;;;;;;4994689;28;20124;-36
2022/03/08 05:22:03;;;;;;;8.77;2.97;;;;;;;;;;4995011;28;20045;-36
2022/03/08 05:24:34;;;;;;;5.85;3.20;;;;;;;;;;4994745;28;20061;-36
2022/03/08 05:27:00;;;;;;;6.07;3.25;;;;;;;;;;4994969;28;20018;-37
2022/03/08 05:29:31;;;;;;;4.80;2.67;;;;;;;;;;4994414;28;20062;-36
2022/03/08 05:31:57;;;;;;;8.60;4.40;;;;;;;;;;4994476;28;20104;-36
2022/03/08 05:34:28;;;;;;;8.50;4.00;;;;;;;;;;4994400;28;20540;-36
2022/03/08 05:36:55;;;;;;;6.07;2.97;;;;;;;;;;4993117;28;20109;-37
2022/03/08 05:39:27;;;;;;;6.13;3.33;;;;;;;;;;4994302;28;20392;-36
2022/03/08 05:42:07;;;;;;;9.00;2.78;;;;;;;;;;4994264;28;20046;-36
2022/03/08 05:44:46;;;;;;;5.07;2.35;;;;;;;;;;4993005;28;20066;-36
2022/03/08 05:47:25;;;;;;;3.85;2.35;;;;;;;;;;4994272;28;20032;-36
2022/03/08 05:49:57;;;;;;;5.30;2.08;;;;;;;;;;4994232;28;20033;-36
2022/03/08 05:52:23;;;;;;;7.15;3.33;;;;;;;;;;4994332;28;20399;-36
2022/03/08 05:54:54;;;;;;;7.35;3.17;;;;;;;;;;4994087;28;20037;-36
2022/03/08 05:57:20;;;;;;;5.20;2.95;;;;;;;;;;4994217;28;20038;-36
2022/03/08 05:59:52;;;;;;;8.38;3.45;;;;;;;;;;4993887;28;20072;-36
2022/03/08 06:02:17;;;;;;;5.15;2.42;;;;;;;;;;4993955;28;20031;-36
2022/03/08 06:04:49;;;;;;;4.30;3.08;;;;;;;;;;4993868;28;20552;-36
2022/03/08 06:07:15;;;;;;;7.82;2.58;;;;;;;;;;4994067;28;20114;-37
2022/03/08 06:09:47;;;;;;;12.88;4.25;;;;;;;;;;4993806;28;20034;-36
2022/03/08 06:12:13;;;;;;;8.18;3.08;;;;;;;;;;4994005;28;20037;-36
2022/03/08 06:14:44;;;;;;;6.80;2.78;;;;;;;;;;4993737;28;20030;-36
2022/03/08 06:17:10;;;;;;;3.80;2.63;;;;;;;;;;4993957;28;20600;-37
2022/03/08 06:19:41;;;;;;;5.55;2.65;;;;;;;;;;4993566;28;20485;-36
2022/03/08 06:22:07;;;;;;;4.25;2.63;;;;;;;;;;4993821;28;20048;-36
2022/03/08 06:24:38;;;;;;;5.63;3.03;;;;;;;;;;4993708;28;20049;-39
2022/03/08 06:27:04;;;;;;;5.63;3.20;;;;;;;;;;4993108;28;20365;-36
2022/03/08 06:29:35;;;;;;;5.07;3.15;;;;;;;;;;4993414;28;20041;-36
2022/03/08 06:32:02;;;;;;;7.45;3.20;;;;;;;;;;4993410;28;20026;-36
2022/03/08 06:34:33;;;;;;;7.35;3.42;;;;;;;;;;4993503;28;20045;-36
2022/03/08 06:36:59;;;;;;;4.25;2.28;;;;;;;;;;4993270;28;20030;-36
2022/03/08 06:39:31;;;;;;;4.53;2.45;;;;;;;;;;4993529;28;20385;-36
2022/03/08 06:41:57;;;;;;;4.00;2.55;;;;;;;;;;4993400;28;20349;-36
2022/03/08 06:44:38;;;;;;;7.38;3.47;;;;;;;;;;4992043;28;20050;-36
2022/03/08 06:47:17;;;;;;;6.18;3.00;;;;;;;;;;4993156;28;20034;-38
2022/03/08 06:49:50;;;;;;;6.78;2.78;;;;;;;;;;4992882;28;20037;-36
2022/03/08 06:52:15;;;;;;;7.07;3.45;;;;;;;;;;4993009;28;20030;-36
2022/03/08 06:54:47;;;;;;;4.25;2.47;;;;;;;;;;4993168;28;20058;-36
2022/03/08 06:57:13;;;;;;;4.47;2.15;;;;;;;;;;4992779;28;20089;-36
2022/03/08 06:59:44;;;;;;;3.72;2.50;;;;;;;;;;4993048;28;20088;-36
2022/03/08 07:02:10;;;;;;;6.00;2.90;;;;;;;;;;4992677;28;20469;-37
2022/03/08 07:04:36;;;;;;;6.03;2.72;;;;;;;;;;4992742;28;20034;-36
2022/03/08 07:07:02;;;;;;;11.38;4.13;;;;;;;;;;4992782;28;20018;-36
2022/03/08 07:09:28;;;;;;;8.25;3.25;;;;;;;;;;4992581;28;20803;-36
2022/03/08 07:11:53;;;;;;;6.40;3.22;;;;;;;;;;4992604;28;20034;-36
2022/03/08 07:14:20;;;;;;;9.55;3.67;;;;;;;;;;4992621;28;20041;-36
2022/03/08 07:16:45;;;;;;;9.45;4.15;;;;;;;;;;4992540;28;20034;-36
2022/03/08 07:19:12;;;;;;;6.40;2.80;;;;;;;;;;4992395;28;20398;-36
2022/03/08 07:21:37;;;;;;;4.22;2.53;;;;;;;;;;4992432;28;20014;-36
2022/03/08 07:24:03;;;;;;;4.53;2.83;;;;;;;;;;4992472;28;20037;-44
2022/03/08 07:26:29;;;;;;;4.63;2.88;;;;;;;;;;4992304;28;20038;-36
2022/03/08 07:28:54;;;;;;;6.93;2.83;;;;;;;;;;4991159;28;20084;-37
2022/03/08 07:31:20;;;;;;;3.35;2.33;;;;;;;;;;4992569;28;20054;-36
2022/03/08 07:33:45;;;;;;;6.13;2.75;;;;;;;;;;4992586;28;20049;-37
2022/03/08 07:36:11;;;;;;;4.32;2.67;;;;;;;;;;5007393;28;20109;-36
2022/03/08 07:38:37;;;;;;;2.85;2.10;;;;;;;;;;4991422;28;20400;-36
2022/03/08 07:41:03;;;;;;;2.75;2.15;;;;;;;;;;5007320;28;20050;-36
2022/03/08 07:43:28;;;;;;;6.63;2.67;;;;;;;;;;5007548;28;20042;-37
2022/03/08 07:45:54;;;;;;;4.55;3.30;;;;;;;;;;4991935;28;20508;-37
2022/03/08 07:48:20;;;;;;;5.35;1.85;;;;;;;;;;4992209;28;20034;-36
2022/03/08 07:50:45;;;;;;;6.80;3.33;;;;;;;;;;4991994;28;20018;-36
2022/03/08 07:53:11;;;;;;;3.45;2.47;;;;;;;;;;4992023;28;20537;-36
2022/03/08 07:55:37;;;;;;;5.82;2.85;;;;;;;;;;4991927;28;20029;-36
2022/03/08 07:58:03;;;;;;;4.90;2.60;;;;;;;;;;4991930;28;20126;-37
2022/03/08 08:00:29;;;;;;;6.80;2.45;;;;;;;;;;4992091;28;20117;-36
2022/03/08 08:02:55;;;;;;;3.47;2.05;;;;;;;;;;4992276;28;20034;-37
2022/03/08 08:05:20;;;;;;;4.07;2.35;;;;;;;;;;4991859;28;20437;-36
2022/03/08 08:07:46;;;;;;;2.00;1.70;;;;;;;;;;4991889;28;20073;-36
2022/03/08 08:10:12;;;;;;;4.28;2.53;;;;;;;;;;4991894;28;20026;-36
2022/03/08 08:12:38;;;;;;;3.85;1.40;;;;;;;;;;4992102;28;20026;-36
2022/03/08 08:15:04;;;;;;;3.38;2.28;;;;;;;;;;4991834;28;20061;-39
2022/03/08 08:17:30;;;;;;;3.72;1.65;;;;;;;;;;4991650;28;20038;-37
2022/03/08 08:19:56;;;;;;;6.60;2.30;;;;;;;;;;4991877;28;20026;-37
2022/03/08 08:22:21;;;;;;;6.20;1.67;;;;;;;;;;4991993;28;20034;-37
2022/03/08 08:24:46;;;;;;;3.25;1.73;;;;;;;;;;4991756;28;20020;-36
2022/03/08 08:27:12;;;;;;;2.33;1.90;;;;;;;;;;4992106;28;20445;-36
2022/03/08 08:29:37;;;;;;;3.33;2.28;;;;;;;;;;4991603;28;20030;-36
2022/03/08 08:32:03;;;;;;;1.40;1.30;;;;;;;;;;4991716;28;20045;-36
2022/03/08 08:34:29;;;;;;;15.63;6.03;;;;;;;;;;4991760;28;20023;-36
2022/03/08 08:36:55;;;;;;;2.88;2.47;;;;;;;;;;4991519;28;20057;-36
2022/03/08 08:39:20;;;;;;;5.20;1.90;;;;;;;;;;4991590;28;20042;-37
2022/03/08 08:41:46;;;;;;;3.05;1.48;;;;;;;;;;4991495;28;20108;-36
2022/03/08 08:44:11;;;;;;;6.55;3.10;;;;;;;;;;4991527;28;20058;-37
2022/03/08 08:46:37;;;;;;;4.60;2.08;;;;;;;;;;4991872;28;20066;-37
2022/03/08 08:49:03;;;;;;;3.90;2.15;;;;;;;;;;4992057;28;20026;-37
2022/03/08 08:51:29;;;;;;;3.17;1.85;;;;;;;;;;4995534;28;20034;-36
2022/03/08 08:53:54;;;;;;;6.30;2.63;;;;;;;;;;4995488;28;20022;-36
2022/03/08 08:56:20;;;;;;;4.05;1.75;;;;;;;;;;4995507;28;20038;-36
2022/03/08 08:58:45;;;;;;;3.47;1.45;;;;;;;;;;5010396;28;20042;-36
2022/03/08 09:01:11;;;;;;;3.25;2.05;;;;;;;;;;4994998;28;20066;-36
2022/03/08 09:03:36;;;;;;;1.98;1.35;;;;;;;;;;4994939;28;20073;-36
2022/03/08 09:06:02;;;;;;;2.42;1.80;;;;;;;;;;4995013;28;20037;-37
2022/03/08 09:08:27;;;;;;;5.45;3.22;;;;;;;;;;4995013;28;20041;-36
2022/03/08 09:10:53;;;;;;;2.38;1.60;;;;;;;;;;4994713;28;20062;-36
2022/03/08 09:13:19;;;;;;;3.42;1.80;;;;;;;;;;4994850;28;20026;-36
2022/03/08 09:15:45;;;;;;;2.90;1.52;;;;;;;;;;5009981;28;20481;-36
2022/03/08 09:18:10;;;;;;;2.97;1.15;;;;;;;;;;4994725;28;20033;-36
2022/03/08 09:20:36;;;;;;;1.40;1.23;;;;;;;;;;4994967;28;20536;-36
2022/03/08 09:23:01;;;;;;;0.93;0.75;;;;;;;;;;4994722;28;20027;-37
2022/03/08 09:25:27;;;;;;;1.25;0.80;;;;;;;;;;4994627;28;20030;-37
2022/03/08 09:27:53;;;;;;;3.58;1.63;;;;;;;;;;4994574;28;20030;-36
2022/03/08 09:30:19;;;;;;;1.90;1.48;;;;;;;;;;4994620;28;20493;-36
2022/03/08 09:32:44;;;;;;;3.20;1.40;;;;;;;;;;4994683;28;20061;-36
2022/03/08 09:35:10;;;;;;;2.30;1.38;;;;;;;;;;4994533;28;20154;-36
2022/03/08 09:37:35;;;;;;;3.38;1.77;;;;;;;;;;4994263;28;20034;-36
2022/03/08 09:40:02;;;;;;;2.30;1.30;;;;;;;;;;4994599;28;20026;-36
2022/03/08 09:42:29;;;;;;;1.25;1.02;;;;;;;;;;4994633;28;20128;-36
2022/03/08 09:44:55;;;;;;;2.50;1.33;;;;;;;;;;4994036;28;20057;-36
2022/03/08 09:47:21;;;;;;;2.72;1.15;;;;;;;;;;4994274;28;20042;-36
2022/03/08 09:49:46;;;;;;;6.68;1.60;;;;;;;;;;4994176;28;20026;-37
2022/03/08 09:52:12;;;;;;;1.60;1.27;;;;;;;;;;4994132;28;20137;-36
2022/03/08 09:54:37;;;;;;;1.40;1.27;;;;;;;;;;4994015;28;20031;-36
2022/03/08 09:57:12;;;;;;;1.67;1.55;;;;;;;;;;4994242;28;20023;-36
2022/03/08 09:59:38;;;;;;;2.35;1.20;;;;;;;;;;4994030;28;20393;-36
2022/03/08 10:02:04;;;;;;;2.03;1.20;;;;;;;;;;4993188;28;20027;-36
2022/03/08 10:04:30;;;;;;;1.20;1.10;;;;;;;;;;4993995;28;20536;-36
2022/03/08 10:06:56;;;;;;;3.92;1.25;;;;;;;;;;4993876;28;20030;-36
2022/03/08 10:09:22;;;;;;;2.63;2.00;;;;;;;;;;4993829;28;20030;-36
2022/03/08 10:11:51;;;;;;;1.45;1.13;;;;;;;;;;4993846;28;20026;-36
2022/03/08 10:14:36;;;;;;;2.72;1.40;;;;;;;;;;4993794;28;20540;-36
2022/03/08 10:17:02;;;;;;;2.20;1.10;;;;;;;;;;4993936;28;20034;-36
2022/03/08 10:19:27;;;;;;;2.60;1.73;;;;;;;;;;4993713;28;20113;-37
2022/03/08 10:21:55;;;;;;;2.55;1.20;;;;;;;;;;4993739;28;20057;-36
2022/03/08 10:24:22;;;;;;;1.70;1.15;;;;;;;;;;4993657;28;20018;-36
2022/03/08 10:26:53;;;;;;;2.15;1.13;;;;;;;;;;5008564;28;20463;-36
2022/03/08 10:29:29;;;;;;;2.33;1.20;;;;;;;;;;4993475;28;20070;-36
2022/03/08 10:32:11;;;;;;;2.22;1.02;;;;;;;;;;4993378;28;20034;-36
2022/03/08 10:34:37;;;;;;;1.27;1.10;;;;;;;;;;4993387;28;20030;-36
2022/03/08 10:37:23;;;;;;;1.55;0.73;;;;;;;;;;4993599;28;20025;-37
2022/03/08 10:40:09;;;;;;;6.70;1.25;;;;;;;;;;4993295;28;20022;-36
2022/03/08 10:42:39;;;;;;;1.20;1.08;;;;;;;;;;4993272;28;20476;-37
2022/03/08 10:45:05;;;;;;;1.88;1.30;;;;;;;;;;4993000;28;20133;-36
2022/03/08 10:47:37;;;;;;;2.40;1.40;;;;;;;;;;4993460;28;20117;-36
2022/03/08 10:50:03;;;;;;;2.28;1.05;;;;;;;;;;4992986;28;20030;-36
2022/03/08 10:52:33;;;;;;;2.40;0.75;;;;;;;;;;4993344;28;20018;-36
2022/03/08 10:55:16;;;;;;;1.98;0.80;;;;;;;;;;4992998;28;20117;-36
2022/03/08 10:57:43;;;;;;;1.13;1.02;;;;;;;;;;4993013;28;20042;-36
2022/03/08 11:00:14;;;;;;;1.38;0.65;;;;;;;;;;4992852;28;20018;-36
2022/03/08 11:02:47;;;;;;;2.53;1.30;;;;;;;;;;4992820;28;20139;-37
2022/03/08 11:05:13;;;;;;;1.65;0.90;;;;;;;;;;4993053;28;20049;-36
2022/03/08 11:07:39;;;;;;;2.22;1.55;;;;;;;;;;4992721;28;20484;-36
2022/03/08 11:10:06;;;;;;;1.13;1.02;;;;;;;;;;4993005;28;20022;-36
2022/03/08 11:12:32;;;;;;;4.47;1.13;;;;;;;;;;4992024;28;20614;-35
2022/03/08 11:14:57;;;;;;;1.17;1.08;;;;;;;;;;4992306;28;20109;-37
2022/03/08 11:17:23;;;;;;;2.63;1.08;;;;;;;;;;4992551;28;20036;-38
2022/03/08 11:19:49;;;;;;;1.85;0.93;;;;;;;;;;4992474;28;20038;-36
2022/03/08 11:22:15;;;;;;;2.08;1.20;;;;;;;;;;4992488;28;20026;-36
2022/03/08 11:24:41;;;;;;;2.75;1.50;;;;;;;;;;4992667;28;20034;-36
2022/03/08 11:27:07;;;;;;;1.90;1.20;;;;;;;;;;4992691;28;20022;-36
2022/03/08 11:29:33;;;;;;;6.03;1.48;;;;;;;;;;4992634;28;20499;-36
2022/03/08 11:32:00;;;;;;;1.25;1.08;;;;;;;;;;4992407;28;20609;-36
2022/03/08 11:34:31;;;;;;;1.08;1.00;;;;;;;;;;4992656;28;20034;-36
2022/03/08 11:36:58;;;;;;;1.35;1.13;;;;;;;;;;4992197;28;20042;-36
2022/03/08 11:39:27;;;;;;;4.07;1.15;;;;;;;;;;4992218;28;20210;-36
2022/03/08 11:41:57;;;;;;;1.38;0.80;;;;;;;;;;4992344;28;20533;-36
2022/03/08 11:44:24;;;;;;;7.78;1.17;;;;;;;;;;4992297;28;20044;-36
2022/03/08 11:47:05;;;;;;;1.83;1.25;;;;;;;;;;4992062;28;20084;-36
2022/03/08 11:49:49;;;;;;;5.35;1.48;;;;;;;;;;4992174;28;20393;-36
2022/03/08 11:52:16;;;;;;;2.03;1.08;;;;;;;;;;4992160;28;20034;-36
2022/03/08 11:54:50;;;;;;;1.25;1.10;;;;;;;;;;4992227;28;20025;-36
2022/03/08 11:57:36;;;;;;;2.33;1.45;;;;;;;;;;4991903;28;20046;-38
2022/03/08 12:00:18;;;;;;;1.58;1.45;;;;;;;;;;4991945;28;20049;-36
2022/03/08 12:02:44;;;;;;;2.42;1.30;;;;;;;;;;4991924;28;20031;-36
2022/03/08 12:05:29;;;;;;;0.43;0.43;;;;;;;;;;4992029;28;20022;-36
2022/03/08 12:07:55;;;;;;;3.00;1.10;;;;;;;;;;4991916;28;20038;-37
2022/03/08 12:10:24;;;;;;;1.02;0.93;;;;;;;;;;4991854;28;20022;-37
2022/03/08 12:12:52;;;;;;;2.72;0.90;;;;;;;;;;4991850;28;20027;-36
2022/03/08 12:15:18;;;;;;;1.45;1.17;;;;;;;;;;4991855;28;20029;-36
2022/03/08 12:18:06;;;;;;;2.25;0.95;;;;;;;;;;4992043;28;20046;-37
2022/03/08 12:20:32;;;;;;;2.40;1.10;;;;;;;;;;4991778;28;20178;-36
2022/03/08 12:23:07;;;;;;;0.90;0.77;;;;;;;;;;4992082;28;20502;-38
2022/03/08 12:25:33;;;;;;;1.05;1.00;;;;;;;;;;4994780;28;20038;-37
2022/03/08 12:27:59;;;;;;;1.15;1.05;;;;;;;;;;4995918;28;20029;-36
2022/03/08 12:30:37;;;;;;;0.90;0.80;;;;;;;;;;4995960;28;20034;-36
2022/03/08 12:33:03;;;;;;;1.23;0.77;;;;;;;;;;4995680;28;20041;-36
2022/03/08 12:35:29;;;;;;;1.75;1.30;;;;;;;;;;4995931;28;20018;-37
2022/03/08 12:37:55;;;;;;;0.80;0.73;;;;;;;;;;4995599;28;20076;-36
2022/03/08 12:40:22;;;;;;;1.75;1.48;;;;;;;;;;4995558;28;20740;-36
2022/03/08 12:42:53;;;;;;;4.40;1.48;;;;;;;;;;4995361;28;20041;-37
2022/03/08 12:45:23;;;;;;;3.10;1.02;;;;;;;;;;4995288;28;20189;-36
2022/03/08 12:47:53;;;;;;;1.05;0.95;;;;;;;;;;4995577;28;20078;-36
2022/03/08 12:50:20;;;;;;;1.38;0.93;;;;;;;;;;4995586;28;20030;-36
2022/03/08 12:52:51;;;;;;;1.02;1.02;;;;;;;;;;4993910;28;20026;-36
2022/03/08 12:55:40;;;;;;;0.85;0.70;;;;;;;;;;4995527;28;20030;-36
2022/03/08 12:58:19;;;;;;;4.63;1.15;;;;;;;;;;4989915;28;20113;-37
2022/03/08 13:00:45;;;;;;;1.88;1.00;;;;;;;;;;4995302;28;20030;-36
2022/03/08 13:03:15;;;;;;;1.08;0.82;;;;;;;;;;4995057;28;20026;-36
2022/03/08 13:05:44;;;;;;;1.20;1.08;;;;;;;;;;4995281;28;20362;-36
2022/03/08 13:08:13;;;;;;;4.47;1.20;;;;;;;;;;4995009;28;20481;-36
2022/03/08 13:10:43;;;;;;;1.55;1.10;;;;;;;;;;4995191;28;20437;-36
2022/03/08 13:13:09;;;;;;;2.33;1.30;;;;;;;;;;4994918;28;20366;-36
2022/03/08 13:15:35;;;;;;;2.28;1.27;;;;;;;;;;4994816;28;20527;-36
2022/03/08 13:18:02;;;;;;;2.72;1.67;;;;;;;;;;4995060;28;20145;-36
2022/03/08 13:20:34;;;;;;;3.15;1.33;;;;;;;;;;4995010;28;20030;-36
2022/03/08 13:23:01;;;;;;;2.25;1.15;;;;;;;;;;4994924;28;20149;-36
2022/03/08 13:25:27;;;;;;;3.03;1.42;;;;;;;;;;4994955;28;20023;-36
2022/03/08 13:27:56;;;;;;;3.63;1.70;;;;;;;;;;4994528;28;20057;-36
2022/03/08 13:30:26;;;;;;;3.72;1.67;;;;;;;;;;4994874;28;20018;-36
2022/03/08 13:33:11;;;;;;;2.83;1.88;;;;;;;;;;4994512;28;20505;-36
2022/03/08 13:35:40;;;;;;;1.48;1.38;;;;;;;;;;4993667;28;20037;-37
2022/03/08 13:38:11;;;;;;;3.03;1.13;;;;;;;;;;4994143;28;20058;-36
2022/03/08 13:40:37;;;;;;;1.33;1.08;;;;;;;;;;4994594;28;20042;-36
2022/03/08 13:43:03;;;;;;;2.90;1.30;;;;;;;;;;4994357;28;20488;-37
2022/03/08 13:45:29;;;;;;;5.88;1.92;;;;;;;;;;4994210;28;20050;-36
2022/03/08 13:47:55;;;;;;;4.28;2.03;;;;;;;;;;4994182;28;20045;-36
2022/03/08 13:50:22;;;;;;;6.75;1.77;;;;;;;;;;4994547;28;20053;-36
2022/03/08 13:52:49;;;;;;;1.63;1.10;;;;;;;;;;4994204;28;20014;-36
2022/03/08 13:55:15;;;;;;;1.70;1.60;;;;;;;;;;4994266;28;20477;-37
2022/03/08 13:57:51;;;;;;;2.33;1.55;;;;;;;;;;4994017;28;20075;-37
2022/03/08 14:00:17;;;;;;;5.88;2.40;;;;;;;;;;4994061;28;20032;-36
2022/03/08 14:02:42;;;;;;;5.13;2.75;;;;;;;;;;4993961;28;20022;-37
2022/03/08 14:05:09;;;;;;;3.80;1.92;;;;;;;;;;4994270;28;20538;-37
2022/03/08 14:07:35;;;;;;;6.80;1.80;;;;;;;;;;4994019;28;20026;-36
2022/03/08 14:10:00;;;;;;;5.22;2.03;;;;;;;;;;4994060;28;20026;-36
2022/03/08 14:12:26;;;;;;;3.28;1.90;;;;;;;;;;4993932;28;20029;-36
2022/03/08 14:15:02;;;;;;;2.88;1.70;;;;;;;;;;4993768;28;20430;-36
2022/03/08 14:17:31;;;;;;;4.57;2.00;;;;;;;;;;4993557;28;20489;-36
2022/03/08 14:19:56;;;;;;;3.35;1.55;;;;;;;;;;4993919;28;20442;-36
2022/03/08 14:22:22;;;;;;;4.38;2.58;;;;;;;;;;4992462;28;20065;-36
2022/03/08 14:25:01;;;;;;;3.75;2.50;;;;;;;;;;4993495;28;20022;-36
2022/03/08 14:27:27;;;;;;;3.67;1.90;;;;;;;;;;4993518;28;20465;-36
2022/03/08 14:30:05;;;;;;;3.90;1.83;;;;;;;;;;4993408;28;20085;-37
2022/03/08 14:32:31;;;;;;;5.32;2.47;;;;;;;;;;4993649;28;20053;-38
2022/03/08 14:35:14;;;;;;;7.38;2.33;;;;;;;;;;4993298;28;20022;-36
2022/03/08 14:37:40;;;;;;;4.07;2.05;;;;;;;;;;4993454;28;20065;-37
2022/03/08 14:40:06;;;;;;;2.35;2.03;;;;;;;;;;4993551;28;20097;-36
2022/03/08 14:42:35;;;;;;;3.83;1.95;;;;;;;;;;4993275;28;20085;-37
2022/03/08 14:45:01;;;;;;;5.43;2.70;;;;;;;;;;5007963;28;20042;-37
2022/03/08 14:47:28;;;;;;;6.47;2.30;;;;;;;;;;4993263;28;20392;-36
2022/03/08 14:49:54;;;;;;;4.55;2.80;;;;;;;;;;4992979;28;20121;-36
2022/03/08 14:52:22;;;;;;;4.40;2.83;;;;;;;;;;4993040;28;20030;-36